aviador You're here:

HEBA Decoded Metar

ALEXANDRIA BORG in EGYPT
Report Time2018-06-25 11:00:00
UTC Time2018-06-25 12:03:33
Flight Rules vfr VFR
Wind330° at 09 kt
W.Decomp.*RWY 32: 9.0 kt HW 0.9 kt RCW
W.Rank330° ranks 1
Current wind is below 330° avg. (10.4)
Visibility9999 m
Phenomena:N/A
Clouds:N/A
Expected CloudBase > 4,400 ft AGL from Temp-Dew spread
CeilingNone
Temp29°C (ISA +14)
Dew Point18°C (51% RH)
Heat Index29.8°C
AAT28.5°C
QNH1011 hPa
Density Alt2,165 ft
Elevation177 ft
Report Wrong Elevation
Raw Report
HEBA 251100Z 33009KT CAVOK 29/18 Q1011 NOSIG=

Extra information for HEBA:More info

Metar Taf Metar & Taf Last 4 Metars F.Rules Stats Wind Profile Meteogram Temp Stats Airport Information Weather charts Add Link Nearby VenuesMetar ALERT Operation Metar Decoded Social comments